sensor_id;sensor_type;location;lat;lon;timestamp;pressure;altitude;pressure_sealevel;temperature;humidity
72038;BME280;59900;50.788;12.904;2023-02-02T00:00:50;97277.25;;;1.67;93.89
72038;BME280;59900;50.788;12.904;2023-02-02T00:03:15;97275.16;;;1.70;93.57
72038;BME280;59900;50.788;12.904;2023-02-02T00:05:45;97268.38;;;1.69;93.58
72038;BME280;59900;50.788;12.904;2023-02-02T00:08:11;97269.84;;;1.72;93.62
72038;BME280;59900;50.788;12.904;2023-02-02T00:10:36;97281.16;;;1.71;93.46
72038;BME280;59900;50.788;12.904;2023-02-02T00:13:01;97282.13;;;1.70;93.78
72038;BME280;59900;50.788;12.904;2023-02-02T00:15:27;97290.84;;;1.69;93.54
72038;BME280;59900;50.788;12.904;2023-02-02T00:17:52;97288.25;;;1.69;93.84
72038;BME280;59900;50.788;12.904;2023-02-02T00:20:17;97306.53;;;1.67;93.73
72038;BME280;59900;50.788;12.904;2023-02-02T00:22:42;97291.69;;;1.69;94.14
72038;BME280;59900;50.788;12.904;2023-02-02T00:25:08;97305.75;;;1.67;93.92
72038;BME280;59900;50.788;12.904;2023-02-02T00:27:33;97294.41;;;1.68;93.90
72038;BME280;59900;50.788;12.904;2023-02-02T00:29:59;97297.28;;;1.65;94.20
72038;BME280;59900;50.788;12.904;2023-02-02T00:32:24;97290.31;;;1.65;94.58
72038;BME280;59900;50.788;12.904;2023-02-02T00:34:49;97309.94;;;1.68;94.21
72038;BME280;59900;50.788;12.904;2023-02-02T00:37:14;97297.69;;;1.70;94.56
72038;BME280;59900;50.788;12.904;2023-02-02T00:39:40;97306.41;;;1.69;94.41
72038;BME280;59900;50.788;12.904;2023-02-02T00:42:05;97309.66;;;1.71;94.24
72038;BME280;59900;50.788;12.904;2023-02-02T00:44:30;97310.34;;;1.73;94.45
72038;BME280;59900;50.788;12.904;2023-02-02T00:47:14;97319.59;;;1.76;94.23
72038;BME280;59900;50.788;12.904;2023-02-02T00:49:40;97316.19;;;1.75;93.70
72038;BME280;59900;50.788;12.904;2023-02-02T00:52:06;97309.88;;;1.78;93.88
72038;BME280;59900;50.788;12.904;2023-02-02T00:54:31;97319.28;;;1.79;93.71
72038;BME280;59900;50.788;12.904;2023-02-02T00:56:56;97307.13;;;1.79;93.15
72038;BME280;59900;50.788;12.904;2023-02-02T00:59:21;97319.00;;;1.82;92.83
72038;BME280;59900;50.788;12.904;2023-02-02T01:01:47;97331.13;;;1.81;92.61
72038;BME280;59900;50.788;12.904;2023-02-02T01:04:12;97332.63;;;1.84;92.62
72038;BME280;59900;50.788;12.904;2023-02-02T01:06:37;97318.84;;;1.83;92.70
72038;BME280;59900;50.788;12.904;2023-02-02T01:09:03;97333.28;;;1.86;92.42
72038;BME280;59900;50.788;12.904;2023-02-02T01:11:28;97328.09;;;1.86;92.44
72038;BME280;59900;50.788;12.904;2023-02-02T01:13:54;97335.72;;;1.87;92.15
72038;BME280;59900;50.788;12.904;2023-02-02T01:16:20;97331.50;;;1.86;91.89
72038;BME280;59900;50.788;12.904;2023-02-02T01:18:46;97328.25;;;1.84;91.46
72038;BME280;59900;50.788;12.904;2023-02-02T01:21:12;97346.22;;;1.86;91.39
72038;BME280;59900;50.788;12.904;2023-02-02T01:23:38;97332.44;;;1.85;91.72
72038;BME280;59900;50.788;12.904;2023-02-02T01:26:06;97329.06;;;1.85;91.57
72038;BME280;59900;50.788;12.904;2023-02-02T01:28:32;97333.44;;;1.84;91.56
72038;BME280;59900;50.788;12.904;2023-02-02T01:30:58;97325.78;;;1.83;91.50
72038;BME280;59900;50.788;12.904;2023-02-02T01:33:28;97331.13;;;1.81;91.17
72038;BME280;59900;50.788;12.904;2023-02-02T01:35:54;97337.78;;;1.84;91.00
72038;BME280;59900;50.788;12.904;2023-02-02T01:38:21;97326.63;;;1.83;91.41
72038;BME280;59900;50.788;12.904;2023-02-02T01:40:52;97330.97;;;1.83;90.78
72038;BME280;59900;50.788;12.904;2023-02-02T01:46:16;97334.25;;;1.85;90.51
72038;BME280;59900;50.788;12.904;2023-02-02T01:48:49;97326.31;;;1.86;90.08
72038;BME280;59900;50.788;12.904;2023-02-02T01:51:18;97331.38;;;1.88;89.92
72038;BME280;59900;50.788;12.904;2023-02-02T01:53:46;97341.72;;;1.88;89.44
72038;BME280;59900;50.788;12.904;2023-02-02T01:56:20;97341.56;;;1.89;89.15
72038;BME280;59900;50.788;12.904;2023-02-02T01:58:48;97345.94;;;1.89;89.14
72038;BME280;59900;50.788;12.904;2023-02-02T02:01:14;97342.53;;;1.88;89.19
72038;BME280;59900;50.788;12.904;2023-02-02T02:03:39;97336.56;;;1.88;89.12
72038;BME280;59900;50.788;12.904;2023-02-02T02:06:07;97338.16;;;1.89;89.08
72038;BME280;59900;50.788;12.904;2023-02-02T02:08:44;97351.00;;;1.90;89.23
72038;BME280;59900;50.788;12.904;2023-02-02T02:11:16;97344.03;;;1.91;88.93
72038;BME280;59900;50.788;12.904;2023-02-02T02:13:41;97336.38;;;1.89;89.15
72038;BME280;59900;50.788;12.904;2023-02-02T02:23:07;97342.22;;;1.91;88.90
72038;BME280;59900;50.788;12.904;2023-02-02T02:34:51;97346.63;;;1.91;88.60
72038;BME280;59900;50.788;12.904;2023-02-02T02:37:35;97345.81;;;1.90;88.22
72038;BME280;59900;50.788;12.904;2023-02-02T02:40:12;97336.56;;;1.88;87.80
72038;BME280;59900;50.788;12.904;2023-02-02T02:42:44;97334.75;;;1.88;87.74
72038;BME280;59900;50.788;12.904;2023-02-02T02:45:11;97341.56;;;1.89;87.29
72038;BME280;59900;50.788;12.904;2023-02-02T02:47:38;97342.53;;;1.88;87.12
72038;BME280;59900;50.788;12.904;2023-02-02T02:50:04;97345.94;;;1.89;86.87
72038;BME280;59900;50.788;12.904;2023-02-02T02:52:30;97344.31;;;1.88;86.39
72038;BME280;59900;50.788;12.904;2023-02-02T02:54:57;97350.16;;;1.90;86.29
72038;BME280;59900;50.788;12.904;2023-02-02T02:57:45;97354.53;;;1.89;86.16
72038;BME280;59900;50.788;12.904;2023-02-02T03:00:29;97369.13;;;1.90;85.67
72038;BME280;59900;50.788;12.904;2023-02-02T03:05:56;97366.00;;;1.87;85.48
72038;BME280;59900;50.788;12.904;2023-02-02T03:08:30;97361.47;;;1.89;84.99
72038;BME280;59900;50.788;12.904;2023-02-02T03:10:57;97355.19;;;1.91;85.05
72038;BME280;59900;50.788;12.904;2023-02-02T03:13:24;97364.47;;;1.94;84.64
72038;BME280;59900;50.788;12.904;2023-02-02T03:15:50;97368.53;;;1.96;84.25
72038;BME280;59900;50.788;12.904;2023-02-02T03:18:18;97365.94;;;1.96;84.33
72038;BME280;59900;50.788;12.904;2023-02-02T03:20:44;97366.59;;;1.98;84.51
72038;BME280;59900;50.788;12.904;2023-02-02T03:23:10;97384.59;;;2.00;84.17
72038;BME280;59900;50.788;12.904;2023-02-02T03:25:35;97381.22;;;1.99;83.85
72038;BME280;59900;50.788;12.904;2023-02-02T03:28:01;97381.88;;;2.01;83.36
72038;BME280;59900;50.788;12.904;2023-02-02T03:30:26;97383.50;;;2.02;83.62
72038;BME280;59900;50.788;12.904;2023-02-02T03:32:52;97382.41;;;2.05;83.31
72038;BME280;59900;50.788;12.904;2023-02-02T03:35:17;97374.63;;;2.05;82.97
72038;BME280;59900;50.788;12.904;2023-02-02T03:37:45;97384.28;;;2.03;82.81
72038;BME280;59900;50.788;12.904;2023-02-02T03:40:11;97390.00;;;2.06;83.17
72038;BME280;59900;50.788;12.904;2023-02-02T03:42:36;97383.22;;;2.05;82.85
72038;BME280;59900;50.788;12.904;2023-02-02T03:45:02;97389.06;;;2.07;82.76
72038;BME280;59900;50.788;12.904;2023-02-02T03:47:28;97385.66;;;2.07;82.85
72038;BME280;59900;50.788;12.904;2023-02-02T03:49:54;97385.66;;;2.07;82.43
72038;BME280;59900;50.788;12.904;2023-02-02T03:52:19;97380.47;;;2.07;82.45
72038;BME280;59900;50.788;12.904;2023-02-02T03:54:44;97402.00;;;2.07;82.26
72038;BME280;59900;50.788;12.904;2023-02-02T03:57:10;97387.28;;;2.08;82.03
72038;BME280;59900;50.788;12.904;2023-02-02T03:59:35;97391.66;;;2.07;82.22
72038;BME280;59900;50.788;12.904;2023-02-02T04:02:00;97405.44;;;2.08;81.75
72038;BME280;59900;50.788;12.904;2023-02-02T04:04:25;97398.47;;;2.08;81.80
72038;BME280;59900;50.788;12.904;2023-02-02T04:06:51;97410.44;;;2.09;81.84
72038;BME280;59900;50.788;12.904;2023-02-02T04:09:17;97407.19;;;2.07;81.57
72038;BME280;59900;50.788;12.904;2023-02-02T04:11:42;97411.44;;;2.08;81.33
72038;BME280;59900;50.788;12.904;2023-02-02T04:14:08;97402.53;;;2.11;81.69
72038;BME280;59900;50.788;12.904;2023-02-02T04:16:34;97421.81;;;2.08;80.99
72038;BME280;59900;50.788;12.904;2023-02-02T04:19:02;97403.50;;;2.10;81.42
72038;BME280;59900;50.788;12.904;2023-02-02T04:21:28;97395.56;;;2.11;81.41
72038;BME280;59900;50.788;12.904;2023-02-02T04:23:53;97407.84;;;2.09;81.79
72038;BME280;59900;50.788;12.904;2023-02-02T04:26:18;97406.91;;;2.10;81.44
72038;BME280;59900;50.788;12.904;2023-02-02T04:28:44;97400.09;;;2.09;81.76
72038;BME280;59900;50.788;12.904;2023-02-02T04:31:09;97410.44;;;2.09;81.59
72038;BME280;59900;50.788;12.904;2023-02-02T04:33:34;97414.69;;;2.10;81.67
72038;BME280;59900;50.788;12.904;2023-02-02T04:36:00;97413.88;;;2.10;81.35
72038;BME280;59900;50.788;12.904;2023-02-02T04:38:25;97425.19;;;2.09;81.39
72038;BME280;59900;50.788;12.904;2023-02-02T04:40:51;97453.69;;;2.09;81.37
72038;BME280;59900;50.788;12.904;2023-02-02T04:43:16;97422.47;;;2.10;81.47
72038;BME280;59900;50.788;12.904;2023-02-02T04:45:41;97419.88;;;2.10;81.58
72038;BME280;59900;50.788;12.904;2023-02-02T04:48:07;97420.69;;;2.11;81.33
72038;BME280;59900;50.788;12.904;2023-02-02T04:50:32;97426.00;;;2.09;81.33
72038;BME280;59900;50.788;12.904;2023-02-02T04:52:57;97417.41;;;2.09;81.23
72038;BME280;59900;50.788;12.904;2023-02-02T04:55:23;97435.56;;;2.09;81.07
72038;BME280;59900;50.788;12.904;2023-02-02T04:57:48;97429.56;;;2.08;81.63
72038;BME280;59900;50.788;12.904;2023-02-02T05:00:14;97426.00;;;2.09;81.29
72038;BME280;59900;50.788;12.904;2023-02-02T05:02:40;97416.47;;;2.10;80.69
72038;BME280;59900;50.788;12.904;2023-02-02T05:05:08;97414.53;;;2.12;80.95
72038;BME280;59900;50.788;12.904;2023-02-02T05:07:34;97418.09;;;2.11;80.77
72038;BME280;59900;50.788;12.904;2023-02-02T05:09:59;97426.66;;;2.11;80.34
72038;BME280;59900;50.788;12.904;2023-02-02T05:12:25;97420.53;;;2.12;80.90
72038;BME280;59900;50.788;12.904;2023-02-02T05:14:50;97442.09;;;2.13;80.28
72038;BME280;59900;50.788;12.904;2023-02-02T05:17:15;97452.59;;;2.11;80.37
72038;BME280;59900;50.788;12.904;2023-02-02T05:19:41;97444.50;;;2.14;80.55
72038;BME280;59900;50.788;12.904;2023-02-02T05:22:07;97460.88;;;2.15;80.59
72038;BME280;59900;50.788;12.904;2023-02-02T05:24:32;97465.41;;;2.13;80.76
72038;BME280;59900;50.788;12.904;2023-02-02T05:26:58;97449.03;;;2.12;80.93
72038;BME280;59900;50.788;12.904;2023-02-02T05:29:26;97462.81;;;2.13;80.45
72038;BME280;59900;50.788;12.904;2023-02-02T05:31:51;97471.41;;;2.13;80.92
72038;BME280;59900;50.788;12.904;2023-02-02T05:34:16;97473.31;;;2.11;80.86
72038;BME280;59900;50.788;12.904;2023-02-02T05:36:41;97464.59;;;2.12;81.07
72038;BME280;59900;50.788;12.904;2023-02-02T05:39:08;97484.66;;;2.10;80.94
72038;BME280;59900;50.788;12.904;2023-02-02T05:41:33;97465.69;;;2.10;80.92
72038;BME280;59900;50.788;12.904;2023-02-02T05:43:58;97480.59;;;2.08;81.33
72038;BME280;59900;50.788;12.904;2023-02-02T05:46:24;97499.97;;;2.04;81.07
72038;BME280;59900;50.788;12.904;2023-02-02T05:48:49;97478.81;;;2.08;81.01
72038;BME280;59900;50.788;12.904;2023-02-02T05:51:26;97468.75;;;2.05;81.28
72038;BME280;59900;50.788;12.904;2023-02-02T05:53:52;97472.66;;;2.09;81.35
72038;BME280;59900;50.788;12.904;2023-02-02T05:56:18;97470.97;;;2.18;81.15
72038;BME280;59900;50.788;12.904;2023-02-02T05:58:43;97483.09;;;2.17;81.05
72038;BME280;59900;50.788;12.904;2023-02-02T06:01:11;97476.69;;;2.21;81.39
72038;BME280;59900;50.788;12.904;2023-02-02T06:03:36;97471.50;;;2.21;80.72
72038;BME280;59900;50.788;12.904;2023-02-02T06:06:01;97489.66;;;2.21;80.47
72038;BME280;59900;50.788;12.904;2023-02-02T06:08:27;97501.41;;;2.16;80.90
72038;BME280;59900;50.788;12.904;2023-02-02T06:10:52;97495.56;;;2.14;80.67
72038;BME280;59900;50.788;12.904;2023-02-02T06:13:17;97487.78;;;2.14;80.13
72038;BME280;59900;50.788;12.904;2023-02-02T06:15:43;97493.94;;;2.13;80.22
72038;BME280;59900;50.788;12.904;2023-02-02T06:18:08;97492.97;;;2.14;80.23
72038;BME280;59900;50.788;12.904;2023-02-02T06:20:34;97517.09;;;2.14;80.62
72038;BME280;59900;50.788;12.904;2023-02-02T06:22:59;97503.19;;;2.15;79.96
72038;BME280;59900;50.788;12.904;2023-02-02T06:25:25;97490.09;;;2.17;79.85
72038;BME280;59900;50.788;12.904;2023-02-02T06:27:54;97497.88;;;2.17;80.11
72038;BME280;59900;50.788;12.904;2023-02-02T06:30:19;97506.59;;;2.16;79.91
72038;BME280;59900;50.788;12.904;2023-02-02T06:32:45;97498.16;;;2.14;80.24
72038;BME280;59900;50.788;12.904;2023-02-02T06:35:10;97498.94;;;2.14;80.21
72038;BME280;59900;50.788;12.904;2023-02-02T06:37:35;97499.66;;;2.16;80.51
72038;BME280;59900;50.788;12.904;2023-02-02T06:40:03;97506.72;;;2.14;80.72
72038;BME280;59900;50.788;12.904;2023-02-02T06:42:29;97511.25;;;2.12;80.65
72038;BME280;59900;50.788;12.904;2023-02-02T06:44:54;97504.97;;;2.15;80.63
72038;BME280;59900;50.788;12.904;2023-02-02T06:47:19;97512.72;;;2.15;80.86
72038;BME280;59900;50.788;12.904;2023-02-02T06:49:45;97509.31;;;2.14;80.87
72038;BME280;59900;50.788;12.904;2023-02-02T06:52:10;97516.44;;;2.12;80.86
72038;BME280;59900;50.788;12.904;2023-02-02T06:54:35;97516.44;;;2.12;81.15
72038;BME280;59900;50.788;12.904;2023-02-02T06:57:00;97510.13;;;2.15;81.09
72038;BME280;59900;50.788;12.904;2023-02-02T06:59:26;97515.47;;;2.13;80.88
72038;BME280;59900;50.788;12.904;2023-02-02T07:01:51;97511.91;;;2.14;80.82
72038;BME280;59900;50.788;12.904;2023-02-02T07:04:17;97521.50;;;2.14;81.19
72038;BME280;59900;50.788;12.904;2023-02-02T07:06:42;97534.56;;;2.12;81.17
72038;BME280;59900;50.788;12.904;2023-02-02T07:09:07;97547.41;;;2.14;81.03
72038;BME280;59900;50.788;12.904;2023-02-02T07:11:33;97539.47;;;2.15;80.89
72038;BME280;59900;50.788;12.904;2023-02-02T07:14:00;97524.59;;;2.17;80.86
72038;BME280;59900;50.788;12.904;2023-02-02T07:16:25;97539.19;;;2.18;80.88
72038;BME280;59900;50.788;12.904;2023-02-02T07:18:50;97552.81;;;2.20;81.07
72038;BME280;59900;50.788;12.904;2023-02-02T07:21:18;97559.94;;;2.18;81.04
72038;BME280;59900;50.788;12.904;2023-02-02T07:23:44;97556.91;;;2.23;81.02
72038;BME280;59900;50.788;12.904;2023-02-02T07:26:11;97559.81;;;2.20;81.01
72038;BME280;59900;50.788;12.904;2023-02-02T07:28:36;97551.88;;;2.21;81.20
72038;BME280;59900;50.788;12.904;2023-02-02T07:31:12;97578.75;;;2.20;81.16
72038;BME280;59900;50.788;12.904;2023-02-02T07:33:40;97557.06;;;2.21;81.37
72038;BME280;59900;50.788;12.904;2023-02-02T07:36:05;97565.78;;;2.20;81.40
72038;BME280;59900;50.788;12.904;2023-02-02T07:38:31;97571.66;;;2.22;81.62
72038;BME280;59900;50.788;12.904;2023-02-02T07:40:59;97571.78;;;2.21;81.10
72038;BME280;59900;50.788;12.904;2023-02-02T07:43:25;97571.66;;;2.22;81.56
72038;BME280;59900;50.788;12.904;2023-02-02T07:45:50;97576.03;;;2.22;81.55
72038;BME280;59900;50.788;12.904;2023-02-02T07:48:15;97569.34;;;2.19;82.02
72038;BME280;59900;50.788;12.904;2023-02-02T07:50:40;97575.19;;;2.21;81.68
72038;BME280;59900;50.788;12.904;2023-02-02T07:53:06;97567.00;;;2.26;81.89
72038;BME280;59900;50.788;12.904;2023-02-02T07:55:31;97569.44;;;2.28;82.12
72038;BME280;59900;50.788;12.904;2023-02-02T07:57:56;97578.72;;;2.30;82.18
72038;BME280;59900;50.788;12.904;2023-02-02T08:00:23;97566.69;;;2.29;81.99
72038;BME280;59900;50.788;12.904;2023-02-02T08:02:48;97569.97;;;2.31;81.70
72038;BME280;59900;50.788;12.904;2023-02-02T08:05:14;97571.59;;;2.32;82.14
72038;BME280;59900;50.788;12.904;2023-02-02T08:07:39;97573.91;;;2.35;82.14
72038;BME280;59900;50.788;12.904;2023-02-02T08:10:05;97584.16;;;2.37;82.34
72038;BME280;59900;50.788;12.904;2023-02-02T08:12:30;97592.88;;;2.36;82.59
72038;BME280;59900;50.788;12.904;2023-02-02T08:14:55;97584.69;;;2.40;82.67
72038;BME280;59900;50.788;12.904;2023-02-02T08:17:22;97585.50;;;2.41;82.65
72038;BME280;59900;50.788;12.904;2023-02-02T08:19:47;97592.00;;;2.45;82.12
72038;BME280;59900;50.788;12.904;2023-02-02T08:22:13;97590.25;;;2.45;82.22
72038;BME280;59900;50.788;12.904;2023-02-02T08:24:38;97586.41;;;2.49;82.31
72038;BME280;59900;50.788;12.904;2023-02-02T08:27:06;97591.59;;;2.49;82.41
72038;BME280;59900;50.788;12.904;2023-02-02T08:29:31;97607.53;;;2.54;82.31
72038;BME280;59900;50.788;12.904;2023-02-02T08:31:57;97588.28;;;2.57;82.00
72038;BME280;59900;50.788;12.904;2023-02-02T08:34:22;97602.59;;;2.61;82.21
72038;BME280;59900;50.788;12.904;2023-02-02T08:36:48;97601.63;;;2.62;81.85
72038;BME280;59900;50.788;12.904;2023-02-02T08:39:13;97604.91;;;2.64;81.62
72038;BME280;59900;50.788;12.904;2023-02-02T08:41:38;97615.00;;;2.67;81.51
72038;BME280;59900;50.788;12.904;2023-02-02T08:44:05;97613.06;;;2.69;81.43
72038;BME280;59900;50.788;12.904;2023-02-02T08:46:31;97635.47;;;2.70;81.71
72038;BME280;59900;50.788;12.904;2023-02-02T08:48:56;97618.09;;;2.70;81.98
72038;BME280;59900;50.788;12.904;2023-02-02T08:51:21;97612.63;;;2.73;81.96
72038;BME280;59900;50.788;12.904;2023-02-02T08:53:46;97643.75;;;2.73;82.05
72038;BME280;59900;50.788;12.904;2023-02-02T08:56:17;97631.88;;;2.71;82.09
72038;BME280;59900;50.788;12.904;2023-02-02T08:58:44;97639.66;;;2.71;82.30
72038;BME280;59900;50.788;12.904;2023-02-02T09:01:16;97643.25;;;2.70;82.47
72038;BME280;59900;50.788;12.904;2023-02-02T09:03:41;97630.13;;;2.71;82.42
72038;BME280;59900;50.788;12.904;2023-02-02T09:06:09;97641.44;;;2.70;82.81
72038;BME280;59900;50.788;12.904;2023-02-02T09:08:35;97649.78;;;2.64;82.78
72038;BME280;59900;50.788;12.904;2023-02-02T09:11:06;97657.16;;;2.69;83.12
72038;BME280;59900;50.788;12.904;2023-02-02T09:13:31;97646.78;;;2.69;82.69
72038;BME280;59900;50.788;12.904;2023-02-02T09:16:00;97650.88;;;2.71;82.78
72038;BME280;59900;50.788;12.904;2023-02-02T09:18:26;97662.72;;;2.74;82.31
72038;BME280;59900;50.788;12.904;2023-02-02T09:20:52;97653.84;;;2.76;81.98
72038;BME280;59900;50.788;12.904;2023-02-02T09:23:17;97630.06;;;2.81;82.16
72038;BME280;59900;50.788;12.904;2023-02-02T09:25:42;97653.44;;;2.81;81.96
72038;BME280;59900;50.788;12.904;2023-02-02T09:28:07;97652.16;;;2.85;82.25
72038;BME280;59900;50.788;12.904;2023-02-02T09:30:33;97653.66;;;2.88;82.34
72038;BME280;59900;50.788;12.904;2023-02-02T09:32:58;97652.41;;;2.92;82.32
72038;BME280;59900;50.788;12.904;2023-02-02T09:35:23;97659.38;;;2.91;82.25
72038;BME280;59900;50.788;12.904;2023-02-02T09:37:48;97673.53;;;2.97;81.70
72038;BME280;59900;50.788;12.904;2023-02-02T09:40:17;97658.50;;;3.00;81.65
72038;BME280;59900;50.788;12.904;2023-02-02T09:43:06;97650.56;;;3.02;81.74
72038;BME280;59900;50.788;12.904;2023-02-02T09:45:44;97671.19;;;3.03;81.24
72038;BME280;59900;50.788;12.904;2023-02-02T09:48:25;97666.53;;;3.07;80.90
72038;BME280;59900;50.788;12.904;2023-02-02T09:50:58;97672.25;;;3.10;80.52
72038;BME280;59900;50.788;12.904;2023-02-02T09:53:37;97681.53;;;3.13;80.60
72038;BME280;59900;50.788;12.904;2023-02-02T09:56:07;97666.91;;;3.12;79.75
72038;BME280;59900;50.788;12.904;2023-02-02T09:58:48;97679.59;;;3.15;80.08
72038;BME280;59900;50.788;12.904;2023-02-02T10:01:24;97687.38;;;3.15;80.03
72038;BME280;59900;50.788;12.904;2023-02-02T10:04:16;97671.66;;;3.16;80.24
72038;BME280;59900;50.788;12.904;2023-02-02T10:06:44;97676.41;;;3.21;80.00
72038;BME280;59900;50.788;12.904;2023-02-02T10:09:35;97672.31;;;3.18;79.93
72038;BME280;59900;50.788;12.904;2023-02-02T10:12:37;97672.56;;;3.25;79.93
72038;BME280;59900;50.788;12.904;2023-02-02T10:15:30;97685.53;;;3.25;80.11
72038;BME280;59900;50.788;12.904;2023-02-02T10:18:17;97686.56;;;3.32;79.70
72038;BME280;59900;50.788;12.904;2023-02-02T10:21:00;97666.50;;;3.34;79.59
72038;BME280;59900;50.788;12.904;2023-02-02T10:23:30;97672.50;;;3.34;80.07
72038;BME280;59900;50.788;12.904;2023-02-02T10:26:07;97683.03;;;3.33;80.12
72038;BME280;59900;50.788;12.904;2023-02-02T10:28:56;97670.56;;;3.36;80.29
72038;BME280;59900;50.788;12.904;2023-02-02T10:31:57;97687.47;;;3.40;80.38
72038;BME280;59900;50.788;12.904;2023-02-02T10:37:39;97675.19;;;3.43;80.37
72038;BME280;59900;50.788;12.904;2023-02-02T10:43:35;97686.16;;;3.54;80.41
72038;BME280;59900;50.788;12.904;2023-02-02T10:46:24;97685.88;;;3.57;80.08
72038;BME280;59900;50.788;12.904;2023-02-02T10:48:59;97693.91;;;3.64;80.12
72038;BME280;59900;50.788;12.904;2023-02-02T10:51:32;97680.59;;;3.67;79.52
72038;BME280;59900;50.788;12.904;2023-02-02T10:53:59;97696.97;;;3.67;79.75
72038;BME280;59900;50.788;12.904;2023-02-02T10:56:37;97720.25;;;3.69;79.42
72038;BME280;59900;50.788;12.904;2023-02-02T10:59:11;97686.59;;;3.67;79.37
72038;BME280;59900;50.788;12.904;2023-02-02T11:01:37;97686.09;;;3.64;77.94
72038;BME280;59900;50.788;12.904;2023-02-02T11:04:03;97703.47;;;3.63;77.75
72038;BME280;59900;50.788;12.904;2023-02-02T11:06:47;97698.41;;;3.62;78.29
72038;BME280;59900;50.788;12.904;2023-02-02T11:09:30;97689.66;;;3.63;78.66
72038;BME280;59900;50.788;12.904;2023-02-02T11:12:00;97697.09;;;3.58;79.25
72038;BME280;59900;50.788;12.904;2023-02-02T11:14:35;97695.44;;;3.57;79.83
72038;BME280;59900;50.788;12.904;2023-02-02T11:17:04;97698.19;;;3.55;79.32
72038;BME280;59900;50.788;12.904;2023-02-02T11:19:32;97703.41;;;3.55;79.69
72038;BME280;59900;50.788;12.904;2023-02-02T11:22:00;97696.41;;;3.56;79.33
72038;BME280;59900;50.788;12.904;2023-02-02T11:24:28;97704.06;;;3.57;79.00
72038;BME280;59900;50.788;12.904;2023-02-02T11:26:55;97713.47;;;3.58;79.51
72038;BME280;59900;50.788;12.904;2023-02-02T11:29:28;97711.84;;;3.57;79.11
72038;BME280;59900;50.788;12.904;2023-02-02T11:31:55;97730.03;;;3.57;79.17
72038;BME280;59900;50.788;12.904;2023-02-02T11:34:25;97729.38;;;3.55;78.80
72038;BME280;59900;50.788;12.904;2023-02-02T11:37:00;97723.06;;;3.58;79.06
72038;BME280;59900;50.788;12.904;2023-02-02T11:39:26;97713.16;;;3.61;78.52
72038;BME280;59900;50.788;12.904;2023-02-02T11:42:05;97721.13;;;3.60;77.83
72038;BME280;59900;50.788;12.904;2023-02-02T11:44:32;97745.34;;;3.60;77.87
72038;BME280;59900;50.788;12.904;2023-02-02T11:47:01;97732.63;;;3.57;77.54
72038;BME280;59900;50.788;12.904;2023-02-02T11:49:28;97719.66;;;3.57;78.05
72038;BME280;59900;50.788;12.904;2023-02-02T11:52:01;97738.50;;;3.59;77.95
72038;BME280;59900;50.788;12.904;2023-02-02T11:54:30;97742.88;;;3.59;77.87
72038;BME280;59900;50.788;12.904;2023-02-02T11:57:02;97757.63;;;3.58;78.17
72038;BME280;59900;50.788;12.904;2023-02-02T11:59:36;97742.22;;;3.57;78.60
72038;BME280;59900;50.788;12.904;2023-02-02T12:02:22;97732.78;;;3.56;78.87
72038;BME280;59900;50.788;12.904;2023-02-02T12:05:35;97734.88;;;3.52;78.61
72038;BME280;59900;50.788;12.904;2023-02-02T12:07:34;97743.84;;;3.58;78.72
72038;BME280;59900;50.788;12.904;2023-02-02T12:12:47;97759.72;;;3.55;79.26
72038;BME280;59900;50.788;12.904;2023-02-02T12:18:36;97754.50;;;3.37;80.63
72038;BME280;59900;50.788;12.904;2023-02-02T12:21:07;97757.00;;;3.29;80.76
72038;BME280;59900;50.788;12.904;2023-02-02T12:24:02;97747.22;;;3.23;81.44
72038;BME280;59900;50.788;12.904;2023-02-02T12:26:37;97738.59;;;3.22;82.47
72038;BME280;59900;50.788;12.904;2023-02-02T12:29:20;97748.69;;;3.25;82.55
72038;BME280;59900;50.788;12.904;2023-02-02T12:32:10;97749.28;;;3.19;82.53
72038;BME280;59900;50.788;12.904;2023-02-02T12:38:03;97743.22;;;3.28;82.79
72038;BME280;59900;50.788;12.904;2023-02-02T12:43:39;97764.38;;;3.33;82.78
72038;BME280;59900;50.788;12.904;2023-02-02T12:46:20;97769.41;;;3.35;82.56
72038;BME280;59900;50.788;12.904;2023-02-02T12:49:23;97772.84;;;3.26;82.61
72038;BME280;59900;50.788;12.904;2023-02-02T13:00:25;97766.44;;;3.30;83.40
72038;BME280;59900;50.788;12.904;2023-02-02T13:03:05;97763.41;;;3.34;83.36
72038;BME280;59900;50.788;12.904;2023-02-02T13:08:41;97761.09;;;3.31;83.45
72038;BME280;59900;50.788;12.904;2023-02-02T13:11:13;97755.47;;;3.36;83.24
72038;BME280;59900;50.788;12.904;2023-02-02T13:14:06;97775.22;;;3.47;82.92
72038;BME280;59900;50.788;12.904;2023-02-02T13:16:35;97780.41;;;3.47;82.44
72038;BME280;59900;50.788;12.904;2023-02-02T13:19:05;97781.69;;;3.43;83.11
72038;BME280;59900;50.788;12.904;2023-02-02T13:21:32;97784.28;;;3.43;83.74
72038;BME280;59900;50.788;12.904;2023-02-02T13:24:02;97786.06;;;3.42;83.72
72038;BME280;59900;50.788;12.904;2023-02-02T13:26:37;97803.28;;;3.43;84.26
72038;BME280;59900;50.788;12.904;2023-02-02T13:31:40;97805.94;;;3.33;84.46
72038;BME280;59900;50.788;12.904;2023-02-02T13:34:21;97809.09;;;3.27;85.09
72038;BME280;59900;50.788;12.904;2023-02-02T13:36:57;97831.53;;;3.19;84.98
72038;BME280;59900;50.788;12.904;2023-02-02T13:39:32;97822.53;;;3.23;85.51
72038;BME280;59900;50.788;12.904;2023-02-02T13:42:00;97821.13;;;3.28;85.61
72038;BME280;59900;50.788;12.904;2023-02-02T13:44:34;97820.69;;;3.33;85.40
72038;BME280;59900;50.788;12.904;2023-02-02T13:47:10;97820.03;;;3.31;85.29
72038;BME280;59900;50.788;12.904;2023-02-02T13:49:43;97829.00;;;3.36;85.26
72038;BME280;59900;50.788;12.904;2023-02-02T13:52:36;97833.56;;;3.25;84.87
72038;BME280;59900;50.788;12.904;2023-02-02T13:55:42;97854.19;;;3.26;85.34
72038;BME280;59900;50.788;12.904;2023-02-02T13:58:43;97870.41;;;3.11;87.39
72038;BME280;59900;50.788;12.904;2023-02-02T14:01:12;97866.44;;;3.07;88.93
72038;BME280;59900;50.788;12.904;2023-02-02T14:03:43;97873.94;;;3.00;89.53
72038;BME280;59900;50.788;12.904;2023-02-02T14:06:19;97866.44;;;2.97;90.50